Time;durP1;ratioP1;P1;durP2;ratioP2;P2;SDS_P1;SDS_P2;PMS_P1;PMS_P2;Temp;Humidity;BMP_temperature;BMP_pressure;BME280_temperature;BME280_humidity;BME280_pressure;Samples;Min_cycle;Max_cycle;Signal;HPM_P1;HPM_P2
2024/02/19 00:02:48;;;;;;;0.38;0.30;;;7.90;99.90;;;;;;5096773;28;20062;-69
2024/02/19 00:06:04;;;;;;;0.85;0.50;;;8.00;99.90;;;;;;5095277;28;20062;-69
2024/02/19 00:09:20;;;;;;;1.40;0.52;;;8.00;99.90;;;;;;5095056;28;20035;-68
2024/02/19 00:12:36;;;;;;;0.45;0.40;;;7.90;99.90;;;;;;5093267;28;20107;-69
2024/02/19 00:15:02;;;;;;;1.48;0.38;;;7.90;99.90;;;;;;5095154;27;20103;-69
2024/02/19 00:17:28;;;;;;;0.38;0.38;;;7.90;99.90;;;;;;5099899;28;20102;-69
2024/02/19 00:19:54;;;;;;;0.80;0.40;;;8.10;99.90;;;;;;5094380;28;20035;-69
2024/02/19 00:22:19;;;;;;;0.30;0.30;;;8.10;99.90;;;;;;5097353;28;20035;-69
2024/02/19 00:24:46;;;;;;;0.57;0.40;;;8.10;99.90;;;;;;5094517;28;20077;-69
2024/02/19 00:27:11;;;;;;;0.73;0.22;;;8.10;99.90;;;;;;5098805;28;20038;-69
2024/02/19 00:32:29;;;;;;;1.73;0.10;;;8.30;99.90;;;;;;5099247;27;20047;-69
2024/02/19 00:34:55;;;;;;;0.68;0.20;;;8.20;99.90;;;;;;5095768;28;20539;-69
2024/02/19 00:37:20;;;;;;;1.17;0.47;;;8.30;99.90;;;;;;5097160;28;20019;-69
2024/02/19 00:39:46;;;;;;;0.77;0.25;;;8.20;99.90;;;;;;5095813;28;20464;-69
2024/02/19 00:42:11;;;;;;;0.47;0.40;;;8.20;99.90;;;;;;5099268;28;20024;-69
2024/02/19 00:44:37;;;;;;;0.35;0.30;;;8.20;99.90;;;;;;5096873;28;20425;-69
2024/02/19 00:47:03;;;;;;;0.45;0.32;;;8.20;99.90;;;;;;5098930;28;20031;-67
2024/02/19 00:49:28;;;;;;;0.30;0.10;;;8.20;99.90;;;;;;5101083;28;20039;-67
2024/02/19 00:51:54;;;;;;;0.65;0.28;;;8.20;99.90;;;;;;5104552;27;20034;-67
2024/02/19 00:54:19;;;;;;;0.20;0.20;;;8.20;99.90;;;;;;5101166;28;20070;-68
2024/02/19 00:56:45;;;;;;;0.30;0.30;;;8.20;99.90;;;;;;5102476;27;20027;-68
2024/02/19 00:59:11;;;;;;;0.25;0.10;;;8.10;99.90;;;;;;5104731;27;20096;-68
2024/02/19 01:01:36;;;;;;;0.60;0.30;;;8.20;99.90;;;;;;5105299;27;20030;-68
2024/02/19 01:04:02;;;;;;;0.30;0.20;;;8.10;99.90;;;;;;5101746;28;20031;-70
2024/02/19 01:06:28;;;;;;;0.47;0.20;;;8.20;99.90;;;;;;5100884;27;20034;-69
2024/02/19 01:08:54;;;;;;;0.10;0.10;;;8.20;99.90;;;;;;5099996;28;20045;-69
2024/02/19 01:11:20;;;;;;;0.35;0.25;;;8.20;99.90;;;;;;5102586;27;20036;-69
2024/02/19 01:13:46;;;;;;;0.68;0.17;;;8.20;99.90;;;;;;5100484;28;20491;-68
2024/02/19 01:16:11;;;;;;;1.23;0.20;;;8.20;99.90;;;;;;5100559;27;20020;-68
2024/02/19 01:18:37;;;;;;;0.30;0.30;;;8.20;99.90;;;;;;5100142;28;20076;-68
2024/02/19 01:21:03;;;;;;;1.08;0.30;;;8.20;99.90;;;;;;5100699;28;20974;-68
2024/02/19 01:23:29;;;;;;;1.10;0.30;;;8.20;99.90;;;;;;5100172;28;20028;-68
2024/02/19 01:25:57;;;;;;;0.20;0.17;;;8.20;99.90;;;;;;5100595;28;20020;-68
2024/02/19 01:28:23;;;;;;;0.28;0.13;;;8.20;99.90;;;;;;5098914;28;20024;-68
2024/02/19 01:31:14;;;;;;;1.25;0.77;;;8.20;99.90;;;;;;5115853;27;20062;-68
2024/02/19 01:33:40;;;;;;;0.65;0.40;;;8.20;99.90;;;;;;5099161;28;20032;-69
2024/02/19 01:36:06;;;;;;;0.47;0.22;;;8.20;99.90;;;;;;5073085;28;20032;-69
2024/02/19 01:38:32;;;;;;;0.17;0.17;;;8.30;99.90;;;;;;5073898;28;20033;-68
2024/02/19 01:40:58;;;;;;;1.23;0.30;;;8.30;99.90;;;;;;5074562;28;20633;-68
2024/02/19 01:43:25;;;;;;;0.10;0.10;;;8.20;99.90;;;;;;5085584;28;20028;-68
2024/02/19 01:45:50;;;;;;;1.40;0.10;;;8.20;99.90;;;;;;5078584;28;20029;-69
2024/02/19 01:48:17;;;;;;;0.30;0.13;;;8.30;99.90;;;;;;5081991;28;20042;-69
2024/02/19 01:50:47;;;;;;;0.50;0.20;;;8.30;99.90;;;;;;5080632;28;20082;-69
2024/02/19 01:53:13;;;;;;;0.30;0.20;;;8.30;99.90;;;;;;5079528;28;20033;-69
2024/02/19 01:55:41;;;;;;;0.40;0.30;;;8.30;99.90;;;;;;5081227;28;20090;-69
2024/02/19 01:58:07;;;;;;;0.30;0.13;;;8.30;99.90;;;;;;5078478;28;20034;-69
2024/02/19 02:00:33;;;;;;;1.98;0.28;;;8.30;99.90;;;;;;5079235;28;20032;-69
2024/02/19 02:03:00;;;;;;;0.57;0.20;;;8.30;99.90;;;;;;5079081;28;20024;-69
2024/02/19 02:05:26;;;;;;;0.65;0.20;;;8.30;99.90;;;;;;5076744;28;20033;-69
2024/02/19 02:07:52;;;;;;;0.40;0.40;;;8.30;99.90;;;;;;5078826;28;20566;-69
2024/02/19 02:10:18;;;;;;;0.47;0.30;;;8.30;99.90;;;;;;5086121;28;20048;-69
2024/02/19 02:12:44;;;;;;;0.20;0.20;;;8.30;99.90;;;;;;5079771;28;20032;-67
2024/02/19 02:15:10;;;;;;;0.10;0.10;;;8.30;99.90;;;;;;5080656;28;20060;-68
2024/02/19 02:17:36;;;;;;;0.20;0.20;;;8.30;99.90;;;;;;5087796;28;20329;-68
2024/02/19 02:20:04;;;;;;;1.23;0.20;;;8.40;99.90;;;;;;5080491;28;20036;-68
2024/02/19 02:22:29;;;;;;;0.13;0.13;;;8.40;99.90;;;;;;5080254;28;20137;-67
2024/02/19 02:24:55;;;;;;;0.20;0.20;;;8.40;99.90;;;;;;5080940;28;20103;-68
2024/02/19 02:27:20;;;;;;;0.88;0.35;;;8.30;99.90;;;;;;5080106;28;20047;-70
2024/02/19 02:29:46;;;;;;;1.13;0.40;;;8.30;99.90;;;;;;5080344;28;20461;-68
2024/02/19 02:32:12;;;;;;;1.00;0.40;;;8.30;99.90;;;;;;5086776;28;20068;-69
2024/02/19 02:34:37;;;;;;;3.28;0.50;;;8.30;99.90;;;;;;5096572;28;20575;-68
2024/02/19 02:37:03;;;;;;;0.80;0.35;;;8.20;99.90;;;;;;5095838;28;20028;-68
2024/02/19 02:39:31;;;;;;;0.30;0.30;;;8.20;99.90;;;;;;5098515;28;20042;-68
2024/02/19 02:41:57;;;;;;;0.45;0.30;;;8.20;99.90;;;;;;5098394;28;20027;-68
2024/02/19 02:44:22;;;;;;;1.00;0.43;;;8.10;99.90;;;;;;5098587;28;23612;-68
2024/02/19 02:46:48;;;;;;;0.93;0.30;;;8.10;99.90;;;;;;5096455;28;20172;-68
2024/02/19 02:49:14;;;;;;;1.10;0.40;;;8.00;99.90;;;;;;5097506;28;20086;-67
2024/02/19 02:51:39;;;;;;;0.65;0.35;;;8.00;99.90;;;;;;5098931;28;20049;-68
2024/02/19 02:54:05;;;;;;;1.70;0.50;;;8.00;99.90;;;;;;5092896;27;20484;-69
2024/02/19 02:56:30;;;;;;;1.13;0.38;;;8.00;99.90;;;;;;5098761;27;20035;-68
2024/02/19 02:58:56;;;;;;;0.25;0.22;;;8.00;99.90;;;;;;5094210;28;20925;-68
2024/02/19 03:01:26;;;;;;;0.32;0.30;;;8.00;99.90;;;;;;5096987;27;20404;-69
2024/02/19 03:03:52;;;;;;;;;;;8.00;99.90;;;;;;5096482;28;20032;-70
2024/02/19 03:06:17;;;;;;;4.03;0.50;;;7.90;99.90;;;;;;5099350;28;19908;-69
2024/02/19 03:08:44;;;;;;;1.40;0.32;;;8.00;99.90;;;;;;5096217;28;20110;-69
2024/02/19 03:11:10;;;;;;;2.50;0.30;;;8.00;99.90;;;;;;5098335;28;20058;-69
2024/02/19 03:13:35;;;;;;;1.08;0.50;;;8.00;99.90;;;;;;5096408;28;20495;-69
2024/02/19 03:16:01;;;;;;;0.60;0.60;;;7.90;99.90;;;;;;5099172;28;20032;-69
2024/02/19 03:18:27;;;;;;;1.83;0.85;;;7.90;99.90;;;;;;5098735;27;20035;-70
2024/02/19 03:20:53;;;;;;;1.95;0.90;;;7.90;99.90;;;;;;5096822;28;20024;-69
2024/02/19 03:23:19;;;;;;;2.72;1.42;;;7.90;99.90;;;;;;5097165;28;20036;-70
2024/02/19 03:25:46;;;;;;;1.60;0.57;;;7.90;99.90;;;;;;5096393;28;20024;-67
2024/02/19 03:28:11;;;;;;;1.02;0.90;;;7.90;99.90;;;;;;5095274;28;20388;-69
2024/02/19 03:30:37;;;;;;;1.45;0.65;;;7.90;99.90;;;;;;5098998;28;20038;-69
2024/02/19 03:33:03;;;;;;;1.23;0.93;;;7.90;99.90;;;;;;5092593;28;20048;-69
2024/02/19 03:35:29;;;;;;;1.40;0.88;;;8.00;99.90;;;;;;5090865;28;20039;-69
2024/02/19 03:37:55;;;;;;;0.93;0.82;;;8.00;99.90;;;;;;5090527;28;20358;-69
2024/02/19 03:40:21;;;;;;;1.98;0.90;;;8.00;99.90;;;;;;5066005;28;20043;-69
2024/02/19 03:42:47;;;;;;;2.90;1.10;;;8.00;99.90;;;;;;5088449;28;20028;-68
2024/02/19 03:45:13;;;;;;;1.30;0.80;;;8.00;99.90;;;;;;5090931;28;20475;-68
2024/02/19 03:47:38;;;;;;;2.58;1.15;;;8.00;99.90;;;;;;5085827;28;20052;-68
2024/02/19 03:50:04;;;;;;;2.45;1.00;;;8.10;99.90;;;;;;5090586;28;20059;-67
2024/02/19 03:52:30;;;;;;;1.75;1.40;;;8.10;99.90;;;;;;5091301;28;20024;-67
2024/02/19 03:54:56;;;;;;;1.98;1.30;;;8.00;99.90;;;;;;5090529;28;20441;-67
2024/02/19 03:57:22;;;;;;;1.45;1.27;;;8.10;99.90;;;;;;5091775;28;20031;-68
2024/02/19 03:59:51;;;;;;;1.58;1.27;;;8.10;99.90;;;;;;5090255;28;20397;-68
2024/02/19 04:02:17;;;;;;;1.85;1.20;;;8.10;99.90;;;;;;5085056;28;20052;-68
2024/02/19 04:04:43;;;;;;;1.45;0.90;;;8.10;99.90;;;;;;5067806;28;20043;-68
2024/02/19 04:07:08;;;;;;;3.75;1.60;;;8.10;99.90;;;;;;5083270;28;20031;-67
2024/02/19 04:09:35;;;;;;;2.53;1.35;;;8.10;99.90;;;;;;5080292;28;20033;-68
2024/02/19 04:12:04;;;;;;;3.13;1.40;;;8.20;99.90;;;;;;5082122;28;20123;-69
2024/02/19 04:14:30;;;;;;;2.53;1.50;;;8.20;99.90;;;;;;5079590;28;20420;-68
2024/02/19 04:16:56;;;;;;;2.17;1.73;;;8.10;99.90;;;;;;5082269;28;20503;-69
2024/02/19 04:19:22;;;;;;;2.00;1.63;;;8.10;99.90;;;;;;5080434;28;20067;-68
2024/02/19 04:21:48;;;;;;;1.83;1.52;;;8.10;99.90;;;;;;5080630;28;20024;-68
2024/02/19 04:24:13;;;;;;;4.75;1.88;;;8.10;99.90;;;;;;5079009;28;20363;-67
2024/02/19 04:26:39;;;;;;;2.70;1.85;;;8.10;99.90;;;;;;5088152;28;20024;-68
2024/02/19 04:29:05;;;;;;;1.80;1.60;;;8.10;99.90;;;;;;5079953;28;20063;-68
2024/02/19 04:31:30;;;;;;;2.63;1.48;;;8.10;99.90;;;;;;5086075;27;20074;-67
2024/02/19 04:33:56;;;;;;;3.45;2.33;;;8.10;99.90;;;;;;5096419;28;20035;-68
2024/02/19 04:36:21;;;;;;;3.60;2.15;;;8.10;99.90;;;;;;5101066;28;20024;-68
2024/02/19 04:38:47;;;;;;;3.97;2.38;;;8.00;99.90;;;;;;5098531;28;20118;-70
2024/02/19 04:41:12;;;;;;;5.68;2.67;;;8.00;99.90;;;;;;5099831;28;20090;-69
2024/02/19 04:43:38;;;;;;;6.03;2.35;;;8.00;99.90;;;;;;5104971;28;20024;-67
2024/02/19 04:46:05;;;;;;;3.60;2.05;;;8.00;99.90;;;;;;5110510;28;20457;-68
2024/02/19 04:48:34;;;;;;;3.00;1.70;;;8.00;99.90;;;;;;5099942;28;20369;-68
2024/02/19 04:51:00;;;;;;;3.40;1.80;;;8.00;99.90;;;;;;5108747;28;20040;-67
2024/02/19 04:53:26;;;;;;;3.58;1.85;;;8.00;99.90;;;;;;5099784;28;20029;-67
2024/02/19 04:55:52;;;;;;;3.35;2.15;;;8.00;99.90;;;;;;5106441;28;20457;-68
2024/02/19 04:58:17;;;;;;;3.47;2.00;;;8.00;99.90;;;;;;5110645;28;20023;-69
2024/02/19 05:00:43;;;;;;;4.47;2.28;;;8.00;99.90;;;;;;5096680;28;20035;-68
2024/02/19 05:03:09;;;;;;;7.85;2.88;;;8.00;99.90;;;;;;5099003;28;20024;-68
2024/02/19 05:05:35;;;;;;;6.53;2.80;;;8.10;99.90;;;;;;5090528;28;20460;-68
2024/02/19 05:08:01;;;;;;;6.05;3.63;;;8.10;99.90;;;;;;5090591;28;20485;-77
2024/02/19 05:10:26;;;;;;;6.07;3.00;;;8.00;99.90;;;;;;5076682;28;20414;-76
2024/02/19 05:12:52;;;;;;;4.82;3.08;;;7.90;99.90;;;;;;5105690;28;20073;-78
2024/02/19 05:15:18;;;;;;;6.47;2.80;;;7.90;99.90;;;;;;5085550;28;20050;-78
2024/02/19 05:17:43;;;;;;;7.15;3.20;;;7.80;99.90;;;;;;5084357;28;20047;-78
2024/02/19 05:20:10;;;;;;;7.30;3.80;;;7.80;99.90;;;;;;5097286;28;20032;-79
2024/02/19 05:22:36;;;;;;;6.75;3.40;;;7.80;99.90;;;;;;5099265;28;20378;-76
2024/02/19 05:25:02;;;;;;;5.55;3.53;;;7.90;99.90;;;;;;5089429;28;20047;-74
2024/02/19 05:27:28;;;;;;;7.78;3.92;;;7.80;99.90;;;;;;5095529;28;20028;-76
2024/02/19 05:29:53;;;;;;;5.03;3.30;;;7.90;99.90;;;;;;5108590;28;20028;-75
2024/02/19 05:32:19;;;;;;;9.18;3.63;;;8.00;99.90;;;;;;5097678;27;20048;-76
2024/02/19 05:34:45;;;;;;;8.25;3.33;;;8.10;99.90;;;;;;5111099;28;20024;-76
2024/02/19 05:37:10;;;;;;;7.78;3.22;;;8.10;99.90;;;;;;5115567;28;20028;-79
2024/02/19 05:39:36;;;;;;;8.30;3.38;;;8.10;99.90;;;;;;5101122;28;20405;-78
2024/02/19 05:42:01;;;;;;;6.20;3.45;;;8.10;99.90;;;;;;5114725;28;20023;-81
2024/02/19 05:44:27;;;;;;;11.02;3.55;;;8.10;99.90;;;;;;5095069;28;20404;-76
2024/02/19 05:46:53;;;;;;;11.43;3.17;;;8.10;99.90;;;;;;5114083;28;20078;-77
2024/02/19 05:49:18;;;;;;;7.70;3.10;;;8.10;99.90;;;;;;5111990;28;20036;-78
2024/02/19 05:51:44;;;;;;;5.65;3.17;;;8.20;99.90;;;;;;5102402;28;20031;-76
2024/02/19 05:54:10;;;;;;;4.38;2.88;;;8.20;99.90;;;;;;5097429;28;20034;-75
2024/02/19 05:56:35;;;;;;;9.73;3.13;;;8.30;99.90;;;;;;5114030;28;20027;-74
2024/02/19 05:59:01;;;;;;;10.20;3.05;;;8.20;99.90;;;;;;5112644;28;20032;-75
2024/02/19 06:01:27;;;;;;;8.13;3.38;;;8.10;99.90;;;;;;5118786;27;20035;-75
2024/02/19 06:03:53;;;;;;;6.70;2.97;;;8.20;99.90;;;;;;5111308;27;20419;-75
2024/02/19 06:06:19;;;;;;;5.97;3.50;;;8.30;99.90;;;;;;5105592;28;20027;-75
2024/02/19 06:08:44;;;;;;;5.55;3.17;;;8.20;99.90;;;;;;5112827;28;20098;-74
2024/02/19 06:11:10;;;;;;;8.05;2.72;;;8.20;99.90;;;;;;5114057;28;20058;-72
2024/02/19 06:13:36;;;;;;;8.43;3.65;;;8.30;99.90;;;;;;5114664;28;20461;-72
2024/02/19 06:16:01;;;;;;;6.15;3.92;;;8.20;99.90;;;;;;5113556;28;20020;-75
2024/02/19 06:18:27;;;;;;;8.00;3.35;;;8.20;99.90;;;;;;5107635;28;20085;-74
2024/02/19 06:20:53;;;;;;;8.05;2.75;;;8.20;99.90;;;;;;5114778;27;20472;-74
2024/02/19 06:23:18;;;;;;;6.47;2.53;;;8.20;99.90;;;;;;5116876;27;20031;-76
2024/02/19 06:25:44;;;;;;;7.18;2.50;;;8.30;99.90;;;;;;5101357;28;20040;-75
2024/02/19 06:28:10;;;;;;;5.18;2.53;;;8.30;99.90;;;;;;5096527;28;20031;-77
2024/02/19 06:30:36;;;;;;;7.55;2.95;;;8.40;99.90;;;;;;5088767;28;20036;-78
2024/02/19 06:33:02;;;;;;;7.78;2.90;;;8.30;99.90;;;;;;5095869;27;20121;-79
2024/02/19 06:35:28;;;;;;;9.00;3.33;;;8.30;99.90;;;;;;5103952;28;20076;-82
2024/02/19 06:37:53;;;;;;;6.35;3.20;;;8.20;99.90;;;;;;5101537;28;20089;-82
2024/02/19 06:40:19;;;;;;;8.63;3.05;;;8.20;99.90;;;;;;5096616;28;20047;-80
2024/02/19 06:42:45;;;;;;;5.75;3.08;;;8.20;99.90;;;;;;5103772;28;20030;-81
2024/02/19 06:45:10;;;;;;;8.00;3.08;;;8.20;99.90;;;;;;5112386;28;20349;-78
2024/02/19 06:47:36;;;;;;;5.63;3.72;;;8.20;99.90;;;;;;5113180;28;20024;-78
2024/02/19 06:50:02;;;;;;;7.72;3.25;;;8.20;99.90;;;;;;5105630;28;20050;-79
2024/02/19 06:52:28;;;;;;;7.35;3.35;;;8.30;99.90;;;;;;5109199;28;20465;-74
2024/02/19 06:54:54;;;;;;;4.68;2.63;;;8.20;99.90;;;;;;5104969;28;20379;-74
2024/02/19 06:57:20;;;;;;;5.88;2.70;;;8.20;99.90;;;;;;5105525;28;20168;-73
2024/02/19 06:59:45;;;;;;;7.38;3.10;;;8.30;99.90;;;;;;5106841;27;20038;-77
2024/02/19 07:02:11;;;;;;;6.20;3.03;;;8.30;99.90;;;;;;5113475;28;20051;-80
2024/02/19 07:04:39;;;;;;;4.53;2.08;;;8.40;99.90;;;;;;5102167;28;20028;-78
2024/02/19 07:07:08;;;;;;;7.55;3.22;;;8.40;99.90;;;;;;5100360;28;20020;-79
2024/02/19 07:09:37;;;;;;;7.78;2.80;;;8.40;99.90;;;;;;5108243;28;20040;-76
2024/02/19 07:12:03;;;;;;;5.72;2.28;;;8.30;99.90;;;;;;5099169;28;20035;-74
2024/02/19 07:14:29;;;;;;;10.50;2.58;;;8.50;99.90;;;;;;5093964;28;20028;-78
2024/02/19 07:16:54;;;;;;;5.72;2.17;;;8.50;99.90;;;;;;5096326;28;20045;-75
2024/02/19 07:19:20;;;;;;;4.20;2.00;;;8.40;99.90;;;;;;5105429;28;20547;-82
2024/02/19 07:21:45;;;;;;;11.52;2.70;;;8.50;99.90;;;;;;5107565;28;20028;-75
2024/02/19 07:24:11;;;;;;;6.72;2.08;;;8.40;99.90;;;;;;5103849;28;20057;-74
2024/02/19 07:26:37;;;;;;;4.68;2.00;;;8.30;99.90;;;;;;5108909;28;20116;-74
2024/02/19 07:29:02;;;;;;;7.35;2.60;;;8.40;99.90;;;;;;5105722;28;20504;-76
2024/02/19 07:34:19;;;;;;;4.97;1.58;;;8.40;99.90;;;;;;5088896;27;20173;-81
2024/02/19 07:36:45;;;;;;;4.80;1.67;;;8.60;99.90;;;;;;5090243;28;20062;-78
2024/02/19 07:39:11;;;;;;;8.02;2.10;;;8.60;99.90;;;;;;5084341;28;20032;-82
2024/02/19 07:41:38;;;;;;;5.85;1.80;;;8.60;99.90;;;;;;5077367;28;20028;-80
2024/02/19 07:44:04;;;;;;;5.40;2.00;;;8.60;99.90;;;;;;5080129;28;20027;-77
2024/02/19 07:46:30;;;;;;;7.85;1.95;;;8.60;99.90;;;;;;5079458;28;20024;-76
2024/02/19 07:48:55;;;;;;;3.22;1.50;;;8.60;99.90;;;;;;5081541;28;20368;-78
2024/02/19 07:51:21;;;;;;;3.72;1.50;;;8.60;99.90;;;;;;5054886;28;20029;-80
2024/02/19 07:53:47;;;;;;;3.85;1.85;;;8.60;99.90;;;;;;5070825;28;20024;-79
2024/02/19 07:56:13;;;;;;;3.35;1.40;;;8.70;99.90;;;;;;5083522;28;20066;-80
2024/02/19 07:58:38;;;;;;;7.28;1.67;;;8.70;99.90;;;;;;5077253;28;20056;-83
2024/02/19 08:01:04;;;;;;;3.20;1.20;;;8.70;99.90;;;;;;5092029;28;20027;-76
2024/02/19 08:03:31;;;;;;;4.63;1.20;;;8.80;99.90;;;;;;5070037;28;20404;-77
2024/02/19 08:05:56;;;;;;;5.15;1.45;;;8.90;99.90;;;;;;5079402;28;20200;-80
2024/02/19 08:08:22;;;;;;;7.40;1.52;;;8.90;99.90;;;;;;5079638;28;20427;-78
2024/02/19 08:10:48;;;;;;;11.35;1.80;;;8.90;99.90;;;;;;5069114;28;20145;-77
2024/02/19 08:13:15;;;;;;;2.25;1.00;;;8.90;99.90;;;;;;5081702;28;20365;-77
2024/02/19 08:15:41;;;;;;;5.40;1.00;;;8.80;99.90;;;;;;5080462;28;20051;-80
2024/02/19 08:18:07;;;;;;;5.93;1.20;;;8.80;99.90;;;;;;5087921;28;20028;-75
2024/02/19 08:20:34;;;;;;;4.22;1.00;;;8.80;99.90;;;;;;5077759;28;20044;-73
2024/02/19 08:22:59;;;;;;;3.30;1.02;;;8.80;99.90;;;;;;5090875;28;20454;-77
2024/02/19 08:25:25;;;;;;;4.10;1.10;;;8.80;99.90;;;;;;5090803;28;20032;-79
2024/02/19 08:27:51;;;;;;;3.55;0.90;;;8.90;99.90;;;;;;5060944;28;20020;-78
2024/02/19 08:30:17;;;;;;;2.90;0.98;;;8.90;99.90;;;;;;5077463;28;20041;-75
2024/02/19 08:32:42;;;;;;;2.63;0.85;;;8.90;99.90;;;;;;5095907;28;20400;-71
2024/02/19 08:35:08;;;;;;;5.20;1.17;;;8.90;99.90;;;;;;5108815;28;20445;-70
2024/02/19 08:37:34;;;;;;;2.75;0.85;;;8.90;99.90;;;;;;5106308;28;20027;-69
2024/02/19 08:39:59;;;;;;;5.03;1.08;;;9.00;99.90;;;;;;5101145;28;20118;-70
2024/02/19 08:42:26;;;;;;;4.70;0.93;;;9.00;99.90;;;;;;5106404;28;20419;-70
2024/02/19 08:44:51;;;;;;;4.28;0.85;;;9.10;99.90;;;;;;5102938;28;20507;-71
2024/02/19 08:47:17;;;;;;;1.42;0.60;;;9.30;99.90;;;;;;5104405;28;20036;-71
2024/02/19 08:49:43;;;;;;;2.03;0.60;;;9.30;99.90;;;;;;5103764;28;20042;-71
2024/02/19 08:52:09;;;;;;;3.30;1.00;;;9.30;99.90;;;;;;5101656;28;20102;-70
2024/02/19 08:54:35;;;;;;;2.38;0.70;;;9.30;99.90;;;;;;5106007;28;20476;-72
2024/02/19 08:57:01;;;;;;;1.98;0.85;;;9.30;99.90;;;;;;5110859;28;20405;-71
2024/02/19 08:59:27;;;;;;;1.83;0.70;;;9.40;99.90;;;;;;5109920;28;20054;-70
2024/02/19 09:01:53;;;;;;;4.88;1.25;;;9.40;99.90;;;;;;5096810;28;20401;-71
2024/02/19 09:04:20;;;;;;;3.88;1.08;;;9.50;99.90;;;;;;5097767;28;20024;-71
2024/02/19 09:06:46;;;;;;;2.67;0.60;;;9.50;99.90;;;;;;5110898;28;20090;-71
2024/02/19 09:09:12;;;;;;;7.05;0.98;;;9.60;99.90;;;;;;5107994;28;20149;-71
2024/02/19 09:11:38;;;;;;;2.53;0.70;;;9.60;99.90;;;;;;5107132;28;20028;-70
2024/02/19 09:14:04;;;;;;;5.95;1.05;;;9.60;99.90;;;;;;5095300;28;20384;-70
2024/02/19 09:16:33;;;;;;;2.40;0.70;;;9.70;99.90;;;;;;5109143;28;20020;-71
2024/02/19 09:18:59;;;;;;;5.90;0.88;;;9.80;99.90;;;;;;5112830;28;20019;-70
2024/02/19 09:21:25;;;;;;;3.03;0.75;;;9.80;99.90;;;;;;5102741;28;20176;-70
2024/02/19 09:23:51;;;;;;;4.10;1.10;;;9.80;99.90;;;;;;5112327;28;20539;-70
2024/02/19 09:26:17;;;;;;;4.47;0.60;;;9.70;99.90;;;;;;5109416;28;20392;-70
2024/02/19 09:28:44;;;;;;;3.15;0.77;;;9.90;99.90;;;;;;5102593;28;20024;-70
2024/02/19 09:31:10;;;;;;;1.73;0.50;;;9.80;99.90;;;;;;5094431;28;20028;-70
2024/02/19 09:33:35;;;;;;;6.57;0.93;;;9.80;99.90;;;;;;5107169;28;20054;-71
2024/02/19 09:36:03;;;;;;;5.47;0.60;;;9.90;99.90;;;;;;5105461;28;20032;-72
2024/02/19 09:38:29;;;;;;;3.05;0.63;;;10.00;99.90;;;;;;5109112;28;20030;-73
2024/02/19 09:40:55;;;;;;;2.20;0.88;;;10.00;99.90;;;;;;5100714;28;20452;-74
2024/02/19 09:43:21;;;;;;;1.85;0.50;;;10.00;99.90;;;;;;5107311;28;20028;-73
2024/02/19 09:45:48;;;;;;;5.68;0.45;;;10.10;99.90;;;;;;5105887;28;20036;-73
2024/02/19 09:48:18;;;;;;;2.95;1.13;;;10.00;99.90;;;;;;5097807;28;20070;-76
2024/02/19 09:50:47;;;;;;;4.00;0.70;;;10.10;99.90;;;;;;5104073;28;20031;-76
2024/02/19 09:53:18;;;;;;;5.15;0.80;;;10.20;99.90;;;;;;5107323;28;20084;-75
2024/02/19 09:55:45;;;;;;;3.85;0.82;;;10.40;99.90;;;;;;5107209;28;20035;-78
2024/02/19 09:58:11;;;;;;;3.97;0.80;;;10.50;99.90;;;;;;5101690;28;20024;-75
2024/02/19 10:00:37;;;;;;;8.85;0.90;;;10.50;99.90;;;;;;5099509;28;20115;-77
2024/02/19 10:03:02;;;;;;;3.75;0.98;;;10.60;99.90;;;;;;5101520;28;20024;-77
2024/02/19 10:05:28;;;;;;;3.72;1.10;;;10.70;99.90;;;;;;5107258;28;20048;-78
2024/02/19 10:07:59;;;;;;;3.30;1.10;;;10.80;99.90;;;;;;5113238;28;20051;-71
2024/02/19 10:10:25;;;;;;;7.00;0.95;;;10.80;99.90;;;;;;5100375;28;20040;-72
2024/02/19 10:12:51;;;;;;;7.57;0.95;;;10.80;99.90;;;;;;5104228;28;20457;-71
2024/02/19 10:15:16;;;;;;;2.70;1.00;;;10.80;99.90;;;;;;5100726;28;20103;-72
2024/02/19 10:17:42;;;;;;;5.78;1.10;;;10.80;99.90;;;;;;5111126;28;20084;-71
2024/02/19 10:20:10;;;;;;;3.83;0.70;;;10.90;99.90;;;;;;5101761;28;20394;-71
2024/02/19 10:22:35;;;;;;;4.22;0.75;;;10.90;99.90;;;;;;5113022;28;20046;-71
2024/02/19 10:25:03;;;;;;;3.72;0.70;;;10.90;99.90;;;;;;5112666;28;20066;-71
2024/02/19 10:27:33;;;;;;;6.82;1.20;;;11.00;99.90;;;;;;5113074;28;20518;-72
2024/02/19 10:29:59;;;;;;;4.18;0.90;;;11.00;99.90;;;;;;5104340;28;20065;-73
2024/02/19 10:32:25;;;;;;;5.28;0.70;;;10.90;99.90;;;;;;5096483;28;20480;-71
2024/02/19 10:34:51;;;;;;;3.65;0.98;;;10.90;99.90;;;;;;5100193;28;20031;-71
2024/02/19 10:37:16;;;;;;;5.70;1.00;;;10.80;99.90;;;;;;5107092;27;20032;-71
2024/02/19 10:39:42;;;;;;;5.20;1.30;;;10.80;99.90;;;;;;5093937;27;20413;-70
2024/02/19 10:42:08;;;;;;;2.83;0.73;;;10.60;99.90;;;;;;5103868;27;20052;-71
2024/02/19 10:44:35;;;;;;;4.32;1.00;;;10.60;99.90;;;;;;5109267;28;20074;-72
2024/02/19 10:47:02;;;;;;;2.97;0.88;;;10.60;99.90;;;;;;5106794;28;20023;-71
2024/02/19 10:49:27;;;;;;;2.40;0.80;;;10.60;99.90;;;;;;5112459;28;20036;-70
2024/02/19 10:51:53;;;;;;;6.53;1.27;;;10.60;99.90;;;;;;5111107;28;20072;-71
2024/02/19 10:54:19;;;;;;;3.08;0.90;;;10.50;99.90;;;;;;5093162;28;20031;-71
2024/02/19 10:56:45;;;;;;;4.40;0.98;;;10.50;99.90;;;;;;5106600;28;20024;-72
2024/02/19 10:59:11;;;;;;;2.13;0.80;;;10.60;99.90;;;;;;5112543;28;20031;-71
2024/02/19 11:01:43;;;;;;;7.50;1.92;;;10.60;99.90;;;;;;5112432;28;20027;-71
2024/02/19 11:04:11;;;;;;;4.80;1.40;;;10.60;99.90;;;;;;5108758;28;20028;-71
2024/02/19 11:06:39;;;;;;;2.38;0.75;;;10.70;99.90;;;;;;5111904;28;20024;-72
2024/02/19 11:09:12;;;;;;;5.95;0.90;;;10.90;99.90;;;;;;5112124;28;20071;-71
2024/02/19 11:11:53;;;;;;;4.55;1.00;;;10.90;99.90;;;;;;5108706;28;20042;-69
2024/02/19 11:14:31;;;;;;;7.35;1.23;;;11.10;99.90;;;;;;5112002;28;20012;-71
2024/02/19 11:16:59;;;;;;;5.30;1.00;;;11.10;99.90;;;;;;5110909;28;20063;-71
2024/02/19 11:19:26;;;;;;;5.65;1.00;;;11.10;99.90;;;;;;5093378;28;20032;-71
2024/02/19 11:22:04;;;;;;;6.53;1.15;;;11.00;99.90;;;;;;5104119;28;20114;-71
2024/02/19 11:24:31;;;;;;;6.38;0.90;;;11.00;99.90;;;;;;5108455;28;20031;-71
2024/02/19 11:26:57;;;;;;;3.97;1.10;;;11.00;99.90;;;;;;5108198;28;20487;-72
2024/02/19 11:29:24;;;;;;;2.65;0.93;;;10.90;99.90;;;;;;5110436;27;20042;-71
2024/02/19 11:31:59;;;;;;;3.63;1.30;;;10.90;99.90;;;;;;5102130;28;20507;-71
2024/02/19 11:34:25;;;;;;;4.93;1.05;;;10.90;99.90;;;;;;5099669;28;20404;-71
2024/02/19 11:36:51;;;;;;;4.45;0.98;;;10.90;99.90;;;;;;5096601;28;20043;-71
2024/02/19 11:39:16;;;;;;;3.15;0.88;;;11.00;99.90;;;;;;5104976;28;20042;-71
2024/02/19 11:41:43;;;;;;;4.35;1.00;;;11.00;99.90;;;;;;5093840;28;20024;-71
2024/02/19 11:44:12;;;;;;;6.07;0.90;;;11.10;99.90;;;;;;5111603;28;20020;-72
2024/02/19 11:46:40;;;;;;;6.85;1.05;;;11.30;99.90;;;;;;5094856;28;20027;-71
2024/02/19 11:49:11;;;;;;;5.75;1.00;;;11.40;99.90;;;;;;5096357;28;20025;-71
2024/02/19 11:51:39;;;;;;;2.50;0.80;;;11.50;99.90;;;;;;5110942;28;20035;-70
2024/02/19 11:54:12;;;;;;;3.58;1.10;;;11.50;99.90;;;;;;5107502;28;20040;-71
2024/02/19 11:56:45;;;;;;;3.38;0.88;;;11.40;99.90;;;;;;5094489;28;20361;-70
2024/02/19 11:59:11;;;;;;;3.47;0.65;;;11.50;99.90;;;;;;5096088;28;20028;-79
2024/02/19 12:01:37;;;;;;;3.08;1.05;;;11.60;99.90;;;;;;5110215;28;20023;-76
2024/02/19 12:04:04;;;;;;;5.40;1.00;;;11.70;99.90;;;;;;5093457;28;20059;-79
2024/02/19 12:06:39;;;;;;;1.77;0.80;;;11.80;99.90;;;;;;5103190;27;20023;-79
2024/02/19 12:09:08;;;;;;;5.57;0.70;;;12.00;99.90;;;;;;5091637;28;20027;-79
2024/02/19 12:11:34;;;;;;;3.17;1.10;;;12.20;99.90;;;;;;5111747;28;20067;-79
2024/02/19 12:13:59;;;;;;;5.43;0.88;;;12.40;99.90;;;;;;5100796;28;20136;-77
2024/02/19 12:16:27;;;;;;;3.10;0.60;;;12.40;99.90;;;;;;5100839;28;20491;-78
2024/02/19 12:18:54;;;;;;;4.93;0.57;;;12.40;99.90;;;;;;5087893;28;20087;-80
2024/02/19 12:21:20;;;;;;;4.85;0.95;;;12.40;99.90;;;;;;5110502;27;20040;-80
2024/02/19 12:23:49;;;;;;;2.83;0.80;;;12.30;99.90;;;;;;5100928;28;20059;-80
2024/02/19 12:26:14;;;;;;;5.65;1.00;;;12.20;99.90;;;;;;5100535;27;20031;-77
2024/02/19 12:28:40;;;;;;;3.53;0.82;;;12.00;99.90;;;;;;5101396;28;20031;-78
2024/02/19 12:31:06;;;;;;;2.75;0.75;;;11.90;99.90;;;;;;5105407;28;20543;-77
2024/02/19 12:33:32;;;;;;;5.05;1.38;;;11.80;99.90;;;;;;5111034;28;21356;-77
2024/02/19 12:35:57;;;;;;;2.63;0.65;;;11.70;99.90;;;;;;5110403;28;20388;-78
2024/02/19 12:38:23;;;;;;;3.45;1.23;;;11.60;99.90;;;;;;5093566;28;20349;-77
2024/02/19 12:40:48;;;;;;;5.72;0.93;;;11.50;99.90;;;;;;5088773;28;20039;-79
2024/02/19 12:43:14;;;;;;;4.60;0.90;;;11.60;99.90;;;;;;5081029;28;20032;-78
2024/02/19 12:45:40;;;;;;;1.45;0.52;;;11.60;99.90;;;;;;5102345;28;20055;-78
2024/02/19 12:48:06;;;;;;;4.35;0.98;;;11.70;99.90;;;;;;5102294;28;20338;-77
2024/02/19 12:50:32;;;;;;;3.22;0.90;;;11.70;99.90;;;;;;5089160;28;20102;-77
2024/02/19 12:53:00;;;;;;;2.65;0.73;;;11.90;99.90;;;;;;5110517;28;20023;-78
2024/02/19 12:55:26;;;;;;;5.57;0.95;;;12.30;99.90;;;;;;5082878;28;20050;-78
2024/02/19 12:57:51;;;;;;;4.72;1.17;;;12.50;99.90;;;;;;5103319;28;20558;-80
2024/02/19 13:00:17;;;;;;;4.38;0.80;;;12.80;99.90;;;;;;5100095;28;20036;-78